createdAt,value
2018-06-01T00:01:47.905Z,15.83
2018-06-01T00:04:16.145Z,13.73
2018-06-01T00:06:45.179Z,14.53
2018-06-01T00:09:17.322Z,14.87
2018-06-01T00:11:45.579Z,16.20
2018-06-01T00:14:14.631Z,15.33
2018-06-01T00:16:42.898Z,12.17
2018-06-01T00:19:11.138Z,15.03
2018-06-01T00:21:40.152Z,14.50
2018-06-01T00:24:08.445Z,14.37
2018-06-01T00:26:36.716Z,13.93
2018-06-01T00:29:05.753Z,14.50
2018-06-01T00:31:34.921Z,12.30
2018-06-01T00:34:03.206Z,11.87
2018-06-01T00:36:31.471Z,14.10
2018-06-01T00:39:00.515Z,14.57
2018-06-01T00:41:28.760Z,14.43
2018-06-01T00:43:57.025Z,14.27
2018-06-01T00:46:26.070Z,14.17
2018-06-01T00:48:54.313Z,13.87
2018-06-01T00:51:22.567Z,14.23
2018-06-01T00:53:51.583Z,13.57
2018-06-01T00:56:20.620Z,15.03
2018-06-01T00:58:48.873Z,16.40
2018-06-01T01:01:17.127Z,15.13
2018-06-01T01:03:46.896Z,14.93
2018-06-01T01:06:15.155Z,17.10
2018-06-01T01:08:43.393Z,14.60
2018-06-01T01:11:11.653Z,14.40
2018-06-01T01:13:39.916Z,14.30
2018-06-01T01:16:08.164Z,15.83
2018-06-01T01:18:36.450Z,12.37
2018-06-01T01:21:04.731Z,28.03
2018-06-01T01:23:33.023Z,14.17
2018-06-01T01:26:01.288Z,15.57
2018-06-01T01:28:29.588Z,17.03
2018-06-01T01:30:57.843Z,15.30
2018-06-01T01:33:26.873Z,16.60
2018-06-01T01:35:55.110Z,16.00
2018-06-01T01:38:24.128Z,15.40
2018-06-01T01:40:58.289Z,16.30
2018-06-01T01:43:26.564Z,15.77
2018-06-01T01:45:54.828Z,14.53
2018-06-01T01:48:23.081Z,15.10
2018-06-01T01:50:52.108Z,15.77
2018-06-01T01:53:20.360Z,15.33
2018-06-01T01:55:49.385Z,16.57
2018-06-01T01:58:17.639Z,17.17
2018-06-01T02:00:45.901Z,15.03
2018-06-01T02:03:14.912Z,13.43
2018-06-01T02:05:43.943Z,15.50
2018-06-01T02:08:12.188Z,15.90
2018-06-01T02:10:40.495Z,17.07
2018-06-01T02:13:11.530Z,15.93
2018-06-01T02:15:39.806Z,15.93
2018-06-01T02:18:08.093Z,15.57
2018-06-01T02:20:36.332Z,15.63
2018-06-01T02:23:04.662Z,17.40
2018-06-01T02:25:32.922Z,17.67
2018-06-01T02:28:01.205Z,18.03
2018-06-01T02:30:29.455Z,15.03
2018-06-01T02:32:57.709Z,16.40
2018-06-01T02:35:26.049Z,16.37
2018-06-01T02:37:54.365Z,17.73
2018-06-01T02:40:22.618Z,17.10
2018-06-01T02:42:50.897Z,21.33
2018-06-01T02:45:19.170Z,15.90
2018-06-01T02:47:47.425Z,16.30
2018-06-01T02:50:16.457Z,18.07
2018-06-01T02:52:44.717Z,17.47
2018-06-01T02:55:13.017Z,19.33
2018-06-01T02:57:41.284Z,20.27
2018-06-01T03:00:10.297Z,21.67
2018-06-01T03:02:38.586Z,23.43
2018-06-01T03:05:06.840Z,23.63
2018-06-01T03:07:35.878Z,22.57
2018-06-01T03:10:04.113Z,22.03
2018-06-01T03:12:33.144Z,20.70
2018-06-01T03:15:01.410Z,20.43
2018-06-01T03:17:29.670Z,20.23
2018-06-01T03:19:57.953Z,20.47
2018-06-01T03:22:26.958Z,21.63
2018-06-01T03:24:55.220Z,21.27
2018-06-01T03:27:23.485Z,22.80
2018-06-01T03:29:53.239Z,22.30
2018-06-01T03:32:21.488Z,19.97
2018-06-01T03:34:49.733Z,22.40
2018-06-01T03:37:18.008Z,20.70
2018-06-01T03:39:46.236Z,21.83
2018-06-01T03:42:15.261Z,21.90
2018-06-01T03:44:43.530Z,24.57
2018-06-01T03:47:12.528Z,24.30
2018-06-01T03:49:40.804Z,23.77
2018-06-01T03:52:09.084Z,23.37
2018-06-01T03:54:38.096Z,23.43
2018-06-01T03:57:06.356Z,25.03
2018-06-01T03:59:35.373Z,22.20
2018-06-01T04:02:03.644Z,23.00
2018-06-01T04:04:32.836Z,23.67
2018-06-01T04:07:01.859Z,23.73
2018-06-01T04:09:30.111Z,19.70
2018-06-01T04:11:59.124Z,20.03
2018-06-01T04:14:27.407Z,20.10
2018-06-01T04:16:55.694Z,23.20
2018-06-01T04:19:24.704Z,23.63
2018-06-01T04:21:52.978Z,24.73
2018-06-01T04:24:21.241Z,25.67
2018-06-01T04:26:49.502Z,24.50
2018-06-01T04:29:17.791Z,26.87
2018-06-01T04:31:46.018Z,26.37
2018-06-01T04:34:14.283Z,23.67
2018-06-01T04:36:42.544Z,22.30
2018-06-01T04:39:11.540Z,20.83
2018-06-01T04:41:39.816Z,20.10
2018-06-01T04:44:08.840Z,19.30
2018-06-01T04:46:37.089Z,21.67
2018-06-01T04:49:05.413Z,20.67
2018-06-01T04:51:33.676Z,20.30
2018-06-01T04:54:01.928Z,23.20
2018-06-01T04:56:30.960Z,23.67
2018-06-01T04:58:59.199Z,26.77
2018-06-01T05:01:28.223Z,26.83
2018-06-01T05:03:56.472Z,26.60
2018-06-01T05:06:25.505Z,29.53
2018-06-01T05:08:53.752Z,31.40
2018-06-01T05:11:22.795Z,29.40
2018-06-01T05:13:51.029Z,34.97
2018-06-01T05:16:20.077Z,34.23
2018-06-01T05:18:48.321Z,32.63
2018-06-01T05:21:17.337Z,39.80
2018-06-01T05:23:45.610Z,40.60
2018-06-01T05:26:13.885Z,42.50
2018-06-01T05:28:42.920Z,39.93
2018-06-01T05:31:11.241Z,38.40
2018-06-01T05:33:39.575Z,32.67
2018-06-01T05:36:07.855Z,28.57
2018-06-01T05:38:36.119Z,33.93
2018-06-01T05:41:04.369Z,33.60
2018-06-01T05:43:32.626Z,33.43
2018-06-01T05:46:00.889Z,34.07
2018-06-01T05:48:29.188Z,30.30
2018-06-01T05:50:57.437Z,27.40
2018-06-01T05:53:25.704Z,27.27
2018-06-01T05:55:53.973Z,29.10
2018-06-01T05:58:22.972Z,25.70
2018-06-01T06:00:51.355Z,28.87
2018-06-01T06:03:19.608Z,30.00
2018-06-01T06:05:47.974Z,28.63
2018-06-01T06:08:16.225Z,25.60
2018-06-01T06:10:44.484Z,25.40
2018-06-01T06:13:12.770Z,22.50
2018-06-01T06:15:41.785Z,22.90
2018-06-01T06:18:10.051Z,22.57
2018-06-01T06:20:38.476Z,22.60
2018-06-01T06:23:06.878Z,23.70
2018-06-01T06:25:35.132Z,22.03
2018-06-01T06:28:03.458Z,21.73
2018-06-01T06:30:32.484Z,24.70
2018-06-01T06:33:00.751Z,24.47
2018-06-01T06:35:28.997Z,27.60
2018-06-01T06:37:58.029Z,32.63
2018-06-01T06:40:26.300Z,24.67
2018-06-01T06:42:54.592Z,26.33
2018-06-01T06:45:22.855Z,22.77
2018-06-01T06:47:51.879Z,23.87
2018-06-01T06:50:20.150Z,24.93
2018-06-01T06:52:48.429Z,25.20
2018-06-01T06:55:16.762Z,22.77
2018-06-01T06:57:44.985Z,20.77
2018-06-01T07:00:13.245Z,19.50
2018-06-01T07:02:42.304Z,21.87
2018-06-01T07:05:12.395Z,22.23
2018-06-01T07:07:40.944Z,21.80
2018-06-01T07:10:09.989Z,21.43
2018-06-01T07:12:38.237Z,24.60
2018-06-01T07:15:07.296Z,22.13
2018-06-01T07:17:35.554Z,21.77
2018-06-01T07:20:03.812Z,23.70
2018-06-01T07:22:32.090Z,26.43
2018-06-01T07:25:00.324Z,27.77
2018-06-01T07:27:28.591Z,26.60
2018-06-01T07:29:56.852Z,24.40
2018-06-01T07:32:25.127Z,26.40
2018-06-01T07:34:53.372Z,26.57
2018-06-01T07:37:22.400Z,27.97
2018-06-01T07:39:50.660Z,26.97
2018-06-01T07:42:19.693Z,28.83
2018-06-01T07:44:48.032Z,28.63
2018-06-01T07:47:16.311Z,27.90
2018-06-01T07:49:45.335Z,28.10
2018-06-01T07:52:13.722Z,26.43
2018-06-01T07:54:42.757Z,26.83
2018-06-01T07:57:11.011Z,27.13
2018-06-01T07:59:39.293Z,30.50
2018-06-01T08:02:07.568Z,32.80
2018-06-01T08:04:35.836Z,40.67
2018-06-01T08:07:04.105Z,35.97
2018-06-01T08:09:33.129Z,35.13
2018-06-01T08:12:01.402Z,41.83
2018-06-01T08:14:29.682Z,45.93
2018-06-01T08:16:57.977Z,48.23
2018-06-01T08:19:26.260Z,46.60
2018-06-01T08:21:54.499Z,48.60
2018-06-01T08:24:23.552Z,49.80
2018-06-01T08:26:51.838Z,53.00
2018-06-01T08:29:20.097Z,44.27
2018-06-01T08:31:48.332Z,42.87
2018-06-01T08:34:17.380Z,37.70
2018-06-01T08:36:45.637Z,44.03
2018-06-01T08:39:13.924Z,39.27
2018-06-01T08:41:42.182Z,42.97
2018-06-01T08:44:11.237Z,46.53
2018-06-01T08:46:39.484Z,45.67
2018-06-01T08:49:07.750Z,45.80
2018-06-01T08:51:36.776Z,52.83
2018-06-01T08:54:05.044Z,52.67
2018-06-01T08:56:33.336Z,48.17
2018-06-01T08:59:01.703Z,46.40
2018-06-01T09:01:29.865Z,50.63
2018-06-01T09:03:58.875Z,48.40
2018-06-01T09:06:27.152Z,47.47
2018-06-01T09:08:55.438Z,48.03
2018-06-01T09:11:24.465Z,48.43
2018-06-01T09:13:52.717Z,43.73
2018-06-01T09:16:20.991Z,34.20
2018-06-01T09:18:49.296Z,42.83
2018-06-01T09:21:17.555Z,41.57
2018-06-01T09:23:45.817Z,33.90
2018-06-01T09:26:14.863Z,40.23
2018-06-01T09:28:44.669Z,36.00
2018-06-01T09:31:13.104Z,33.17
2018-06-01T09:33:41.333Z,42.57
2018-06-01T09:36:09.601Z,39.70
2018-06-01T09:38:37.869Z,37.00
2018-06-01T09:41:06.366Z,42.97
2018-06-01T09:43:34.655Z,41.37
2018-06-01T09:46:02.907Z,36.57
2018-06-01T09:48:31.956Z,36.87
2018-06-01T09:51:00.224Z,35.77
2018-06-01T09:53:28.464Z,39.27
2018-06-01T09:55:56.779Z,44.23
2018-06-01T09:58:25.045Z,43.90
2018-06-01T10:00:59.039Z,41.13
2018-06-01T10:03:28.067Z,45.43
2018-06-01T10:05:56.359Z,48.77
2018-06-01T10:08:24.608Z,47.83
2018-06-01T10:10:52.910Z,51.20
2018-06-01T10:13:21.179Z,56.67
2018-06-01T10:15:49.562Z,51.80
2018-06-01T10:18:17.817Z,53.63
2018-06-01T10:20:46.095Z,53.60
2018-06-01T10:23:15.149Z,57.57
2018-06-01T10:25:43.436Z,55.87
2018-06-01T10:28:11.904Z,55.30
2018-06-01T10:30:40.161Z,62.47
2018-06-01T10:33:08.441Z,60.00
2018-06-01T10:35:36.702Z,54.60
2018-06-01T10:38:05.772Z,58.23
2018-06-01T10:40:34.040Z,56.10
2018-06-01T10:43:02.328Z,57.83
2018-06-01T10:45:30.631Z,55.53
2018-06-01T10:47:59.639Z,56.60
2018-06-01T10:50:28.701Z,60.83
2018-06-01T10:52:56.954Z,60.03
2018-06-01T10:55:25.301Z,61.33
2018-06-01T10:57:54.329Z,54.77
2018-06-01T11:00:22.591Z,54.33
2018-06-01T11:02:51.628Z,56.80
2018-06-01T11:05:19.876Z,55.03
2018-06-01T11:07:48.149Z,56.10
2018-06-01T11:10:17.464Z,58.90
2018-06-01T11:12:45.737Z,59.50
2018-06-01T11:15:14.747Z,56.57
2018-06-01T11:17:43.036Z,58.10
2018-06-01T11:20:11.307Z,59.97
2018-06-01T11:22:39.579Z,63.20
2018-06-01T11:25:07.818Z,58.67
2018-06-01T11:27:36.085Z,63.60
2018-06-01T11:30:04.335Z,58.13
2018-06-01T11:32:32.598Z,58.63
2018-06-01T11:35:00.875Z,56.30
2018-06-01T11:37:29.141Z,59.00
2018-06-01T11:39:58.170Z,60.50
2018-06-01T11:42:26.430Z,56.70
2018-06-01T11:44:55.441Z,59.23
2018-06-01T11:47:23.717Z,59.97
2018-06-01T11:49:52.756Z,60.77
2018-06-01T11:52:21.047Z,61.90
2018-06-01T11:54:49.275Z,54.90
2018-06-01T11:57:17.596Z,60.30
2018-06-01T11:59:46.871Z,56.00
2018-06-01T12:02:15.119Z,57.43
2018-06-01T12:04:44.145Z,59.20
2018-06-01T12:07:12.434Z,58.63
2018-06-01T12:09:40.701Z,62.23
2018-06-01T12:12:08.950Z,64.30
2018-06-01T12:14:38.203Z,60.20
2018-06-01T12:17:06.490Z,54.53
2018-06-01T12:19:34.747Z,53.93
2018-06-01T12:22:03.033Z,56.57
2018-06-01T12:24:31.277Z,58.47
2018-06-01T12:27:00.276Z,62.13
2018-06-01T12:29:29.717Z,58.70
2018-06-01T12:31:57.885Z,54.83
2018-06-01T12:34:27.064Z,62.33
2018-06-01T12:36:56.397Z,62.30
2018-06-01T12:39:25.607Z,59.33
2018-06-01T12:41:54.606Z,62.20
2018-06-01T12:44:22.869Z,56.93
2018-06-01T12:46:51.142Z,68.10
2018-06-01T12:49:20.200Z,63.47
2018-06-01T12:51:48.460Z,62.93
2018-06-01T12:54:16.729Z,66.40
2018-06-01T12:56:45.018Z,57.30
2018-06-01T12:59:13.265Z,64.50
2018-06-01T13:01:42.491Z,63.70
2018-06-01T13:04:10.739Z,69.53
2018-06-01T13:06:39.751Z,74.53
2018-06-01T13:09:08.029Z,75.80
2018-06-01T13:11:36.342Z,69.47
2018-06-01T13:14:04.620Z,70.17
2018-06-01T13:16:32.902Z,76.17
2018-06-01T13:19:01.228Z,68.17
2018-06-01T13:21:29.492Z,72.83
2018-06-01T13:23:57.729Z,65.97
2018-06-01T13:26:26.027Z,63.10
2018-06-01T13:28:54.300Z,68.07
2018-06-01T13:31:22.570Z,59.60
2018-06-01T13:33:50.842Z,68.90
2018-06-01T13:36:19.068Z,63.50
2018-06-01T13:38:47.584Z,64.90
2018-06-01T13:41:15.874Z,72.30
2018-06-01T13:43:44.185Z,58.63
2018-06-01T13:46:12.432Z,65.50
2018-06-01T13:48:40.981Z,60.83
2018-06-01T13:51:09.263Z,60.27
2018-06-01T13:53:37.557Z,59.60
2018-06-01T13:56:05.862Z,57.27
2018-06-01T13:58:34.097Z,58.60
2018-06-01T14:01:02.365Z,56.13
2018-06-01T14:03:30.941Z,53.87
2018-06-01T14:05:59.221Z,50.97
2018-06-01T14:08:27.492Z,49.67
2018-06-01T14:10:55.751Z,48.17
2018-06-01T14:13:24.788Z,45.70
2018-06-01T14:15:53.082Z,43.27
2018-06-01T14:18:21.337Z,44.00
2018-06-01T14:20:49.620Z,42.93
2018-06-01T14:23:17.897Z,44.40
2018-06-01T14:25:46.165Z,42.07
2018-06-01T14:28:14.453Z,46.43
2018-06-01T14:30:42.713Z,43.23
2018-06-01T14:33:11.747Z,41.63
2018-06-01T14:35:40.051Z,43.07
2018-06-01T14:38:08.317Z,46.07
2018-06-01T14:40:36.607Z,43.47
2018-06-01T14:43:04.875Z,44.00
2018-06-01T14:45:33.121Z,46.27
2018-06-01T14:48:01.399Z,44.07
2018-06-01T14:50:30.430Z,44.73
2018-06-01T14:52:58.747Z,45.27
2018-06-01T14:55:27.069Z,44.67
2018-06-01T14:57:55.329Z,41.40
2018-06-01T15:00:24.335Z,46.23
2018-06-01T15:02:53.396Z,43.80
2018-06-01T15:08:04.899Z,49.23
2018-06-01T15:10:33.153Z,47.70
2018-06-01T15:13:01.431Z,45.97
2018-06-01T15:15:29.681Z,45.70
2018-06-01T15:17:57.960Z,49.87
2018-06-01T15:20:26.228Z,51.47
2018-06-01T15:22:55.251Z,45.97
2018-06-01T15:25:23.516Z,52.03
2018-06-01T15:27:52.549Z,55.33
2018-06-01T15:30:20.802Z,52.60
2018-06-01T15:32:49.859Z,53.43
2018-06-01T15:35:18.080Z,54.87
2018-06-01T15:37:46.384Z,56.30
2018-06-01T15:40:14.633Z,55.00
2018-06-01T15:42:43.484Z,45.83
2018-06-01T15:45:11.756Z,37.40
2018-06-01T15:47:40.128Z,37.53
2018-06-01T15:50:08.366Z,44.50
2018-06-01T15:52:36.649Z,43.70
2018-06-01T15:55:05.695Z,46.60
2018-06-01T15:57:33.951Z,45.37
2018-06-01T16:00:02.268Z,46.43
2018-06-01T16:02:30.514Z,51.97
2018-06-01T16:04:58.806Z,49.93
2018-06-01T16:07:27.075Z,49.67
2018-06-01T16:09:55.338Z,48.47
2018-06-01T16:12:23.598Z,52.43
2018-06-01T16:14:52.636Z,52.80
2018-06-01T16:17:20.901Z,49.80
2018-06-01T16:19:49.194Z,51.10
2018-06-01T16:22:17.458Z,51.87
2018-06-01T16:24:45.732Z,50.77
2018-06-01T16:27:14.803Z,51.90
2018-06-01T16:29:43.052Z,49.97
2018-06-01T16:32:11.328Z,54.57
2018-06-01T16:34:39.589Z,59.40
2018-06-01T16:37:07.855Z,55.60
2018-06-01T16:39:36.859Z,56.13
2018-06-01T16:42:05.157Z,57.20
2018-06-01T16:44:33.436Z,57.90
2018-06-01T16:47:01.713Z,62.83
2018-06-01T16:49:30.014Z,59.77
2018-06-01T16:51:58.270Z,62.87
2018-06-01T16:54:27.338Z,63.80
2018-06-01T16:56:55.633Z,67.90
2018-06-01T16:59:24.670Z,75.07
2018-06-01T17:01:52.971Z,81.80
2018-06-01T17:04:21.279Z,81.63
2018-06-01T17:06:49.559Z,85.47
2018-06-01T17:09:18.612Z,79.37
2018-06-01T17:11:46.859Z,71.07
2018-06-01T17:14:15.168Z,77.40
2018-06-01T17:16:44.193Z,76.83
2018-06-01T17:19:12.498Z,73.20
2018-06-01T17:21:40.740Z,72.70
2018-06-01T17:24:09.013Z,80.73
2018-06-01T17:26:37.270Z,79.80
2018-06-01T17:29:05.541Z,75.37
2018-06-01T17:31:33.783Z,73.80
2018-06-01T17:34:03.542Z,74.43
2018-06-01T17:36:31.821Z,72.33
2018-06-01T17:39:00.081Z,75.70
2018-06-01T17:41:29.149Z,79.00
2018-06-01T17:43:57.404Z,75.30
2018-06-01T17:46:26.696Z,72.53
2018-06-01T17:48:54.944Z,79.47
2018-06-01T17:51:23.983Z,71.30
2018-06-01T17:53:52.270Z,71.33
2018-06-01T17:56:20.540Z,70.20
2018-06-01T17:58:48.798Z,70.73
2018-06-01T18:01:17.078Z,75.93
2018-06-01T18:03:46.085Z,68.83
2018-06-01T18:06:14.349Z,62.90
2018-06-01T18:08:43.394Z,65.77
2018-06-01T18:11:11.674Z,59.30
2018-06-01T18:13:39.958Z,56.43
2018-06-01T18:16:08.195Z,52.73
2018-06-01T18:18:36.444Z,53.43
2018-06-01T18:21:04.732Z,56.03
2018-06-01T18:23:32.977Z,53.23
2018-06-01T18:26:01.262Z,58.23
2018-06-01T18:28:29.506Z,55.80
2018-06-01T18:30:57.777Z,54.70
2018-06-01T18:33:26.048Z,51.90
2018-06-01T18:35:55.112Z,55.00
2018-06-01T18:38:23.368Z,51.63
2018-06-01T18:40:51.657Z,52.97
2018-06-01T18:43:20.719Z,50.27
2018-06-01T18:45:49.728Z,45.77
2018-06-01T18:48:18.051Z,49.53
2018-06-01T18:50:46.304Z,45.07
2018-06-01T18:53:15.590Z,47.90
2018-06-01T18:55:44.746Z,46.07
2018-06-01T18:58:13.014Z,47.43
2018-06-01T19:00:41.284Z,43.47
2018-06-01T19:03:09.552Z,42.30
2018-06-01T19:05:37.847Z,41.67
2018-06-01T19:08:06.127Z,43.20
2018-06-01T19:10:34.401Z,38.97
2018-06-01T19:13:02.649Z,38.37
2018-06-01T19:15:30.936Z,40.47
2018-06-01T19:17:59.184Z,38.07
2018-06-01T19:20:28.217Z,39.20
2018-06-01T19:22:56.466Z,37.57
2018-06-01T19:25:25.501Z,38.40
2018-06-01T19:27:53.762Z,39.70
2018-06-01T19:30:22.788Z,37.03
2018-06-01T19:32:51.812Z,41.53
2018-06-01T19:35:21.014Z,36.87
2018-06-01T19:37:49.292Z,41.63
2018-06-01T19:40:17.559Z,38.60
2018-06-01T19:42:45.936Z,36.07
2018-06-01T19:45:14.186Z,38.90
2018-06-01T19:47:42.473Z,33.23
2018-06-01T19:50:10.713Z,36.63
2018-06-01T19:52:38.978Z,34.37
2018-06-01T19:55:07.309Z,31.90
2018-06-01T19:57:36.305Z,31.07
2018-06-01T20:00:04.575Z,30.07
2018-06-01T20:02:32.836Z,29.43
2018-06-01T20:05:01.091Z,27.27
2018-06-01T20:07:30.340Z,25.43
2018-06-01T20:09:58.609Z,27.37
2018-06-01T20:12:27.643Z,27.13
2018-06-01T20:14:55.888Z,26.20
2018-06-01T20:17:24.906Z,30.13
2018-06-01T20:19:53.154Z,27.47
2018-06-01T20:22:21.534Z,26.00
2018-06-01T20:24:49.748Z,29.83
2018-06-01T20:27:18.000Z,29.50
2018-06-01T20:29:48.063Z,27.93
2018-06-01T20:32:17.079Z,26.80
2018-06-01T20:34:45.353Z,29.83
2018-06-01T20:37:13.629Z,33.50
2018-06-01T20:39:41.880Z,29.87
2018-06-01T20:42:10.917Z,32.43
2018-06-01T20:44:39.156Z,32.30
2018-06-01T20:47:07.433Z,27.40
2018-06-01T20:49:36.448Z,28.60
2018-06-01T20:52:05.460Z,28.90
2018-06-01T20:54:33.777Z,27.50
2018-06-01T20:57:02.025Z,29.80
2018-06-01T20:59:30.289Z,31.47
2018-06-01T21:01:58.589Z,32.87
2018-06-01T21:04:26.847Z,29.67
2018-06-01T21:06:55.141Z,31.47
2018-06-01T21:09:23.447Z,30.53
2018-06-01T21:11:52.473Z,31.00
2018-06-01T21:14:20.933Z,32.13
2018-06-01T21:16:49.210Z,31.43
2018-06-01T21:19:17.481Z,33.80
2018-06-01T21:21:45.716Z,32.80
2018-06-01T21:24:14.009Z,35.43
2018-06-01T21:26:42.272Z,43.40
2018-06-01T21:29:11.298Z,35.93
2018-06-01T21:31:39.549Z,38.77
2018-06-01T21:34:08.598Z,40.57
2018-06-01T21:36:36.853Z,38.30
2018-06-01T21:39:05.967Z,40.67
2018-06-01T21:41:34.209Z,44.70
2018-06-01T21:44:03.232Z,42.10
2018-06-01T21:46:31.484Z,44.60
2018-06-01T21:49:00.497Z,42.60
2018-06-01T21:51:29.508Z,43.20
2018-06-01T21:53:57.773Z,40.00
2018-06-01T21:56:26.046Z,42.73
2018-06-01T21:58:54.297Z,44.00
2018-06-01T22:01:22.555Z,41.93
2018-06-01T22:03:50.809Z,41.53
2018-06-01T22:06:20.267Z,45.20
2018-06-01T22:08:48.623Z,39.90
2018-06-01T22:11:16.846Z,42.13
2018-06-01T22:13:45.882Z,40.40
2018-06-01T22:16:14.123Z,40.90
2018-06-01T22:18:42.378Z,40.60
2018-06-01T22:21:10.641Z,46.70
2018-06-01T22:23:38.909Z,38.50
2018-06-01T22:26:07.168Z,38.67
2018-06-01T22:28:35.446Z,41.93
2018-06-01T22:31:04.455Z,44.47
2018-06-01T22:33:32.729Z,44.90
2018-06-01T22:36:01.730Z,44.20
2018-06-01T22:38:30.019Z,43.90
2018-06-01T22:40:58.298Z,43.50
2018-06-01T22:43:26.544Z,43.17
2018-06-01T22:45:55.585Z,41.90
2018-06-01T22:48:23.822Z,40.33
2018-06-01T22:50:52.884Z,42.17
2018-06-01T22:53:21.129Z,42.60
2018-06-01T22:55:49.473Z,41.83
2018-06-01T22:58:18.976Z,41.80
2018-06-01T23:00:47.315Z,36.80
2018-06-01T23:03:15.559Z,40.83
2018-06-01T23:05:44.609Z,43.90
2018-06-01T23:08:12.872Z,43.03
2018-06-01T23:10:41.129Z,43.30
2018-06-01T23:13:09.395Z,39.50
2018-06-01T23:15:38.449Z,43.40
2018-06-01T23:18:06.731Z,40.17
2018-06-01T23:20:35.026Z,43.20
2018-06-01T23:23:03.312Z,46.33
2018-06-01T23:25:31.599Z,43.97
2018-06-01T23:27:59.860Z,44.50
2018-06-01T23:30:28.121Z,42.13
2018-06-01T23:32:56.391Z,43.97
2018-06-01T23:35:24.637Z,44.03
2018-06-01T23:37:53.010Z,45.90
2018-06-01T23:40:21.298Z,51.97
2018-06-01T23:42:50.336Z,48.57
2018-06-01T23:45:18.593Z,44.33
2018-06-01T23:47:46.879Z,46.03
2018-06-01T23:50:15.920Z,51.57
2018-06-01T23:52:44.180Z,48.80
2018-06-01T23:55:12.456Z,58.10
2018-06-01T23:57:40.714Z,52.77
